WetterOnline ( https://www.wetteronline.de )

Wetter aktuell Mildenau

Aktuelles Wetter: Chemnitz (420m)

6-stündlich | Neueste Meldungen
Ortszeit Temperatur Wetter
Mo, 01.03. 7:00 1.7° C Nebel
Mo, 01.03. 1:00 1.8° C Nebel
So, 28.02. 19:00 3.3° C wolkenlos
So, 28.02. 13:00 6.1° C wolkenlos
So, 28.02. 7:00 0.2° C bedeckt
So, 28.02. 1:00 1.9° C bedeckt
Sa, 27.02. 19:00 2.2° C Sprühregen
Sa, 27.02. 13:00 2.4° C bedeckt
Ortszeit Temperatur Wetter
Mo, 01.03. 9:00 1.9° C bedeckt
Mo, 01.03. 8:50 1.9° C bedeckt
Mo, 01.03. 8:40 1.7° C bedeckt
Mo, 01.03. 8:30 1.8° C bedeckt
Mo, 01.03. 8:20 1.8° C bedeckt
Mo, 01.03. 8:10 1.7° C bedeckt
Mo, 01.03. 8:00 1.7° C bedeckt
Mo, 01.03. 7:30 1.7° C bedeckt
Mo, 01.03. 7:00 1.7° C Nebel
Mo, 01.03. 6:30 1.5° C Nebel
Mo, 01.03. 6:00 1.5° C Nebel
Ortszeit Relative Feuchte Sichtweite
Mo, 01.03. 7:00 100% 100 m
Mo, 01.03. 1:00 100% <100 m
So, 28.02. 19:00 88% 18 km
So, 28.02. 13:00 67% 17 km
So, 28.02. 7:00 92% 16 km
So, 28.02. 1:00 91% 21 km
Sa, 27.02. 19:00 99% 6 km
Sa, 27.02. 13:00 92% 20 km
Ortszeit Relative Feuchte Sichtweite
Mo, 01.03. 9:00 97% 10 km
Mo, 01.03. 8:50 97% -
Mo, 01.03. 8:40 98% -
Mo, 01.03. 8:30 99% 8 km
Mo, 01.03. 8:20 99% -
Mo, 01.03. 8:10 99% -
Mo, 01.03. 8:00 100% 5.0 km
Mo, 01.03. 7:30 100% 5.0 km
Mo, 01.03. 7:00 100% 100 m
Mo, 01.03. 6:30 100% 100 m
Mo, 01.03. 6:00 100% <100 m
Ortszeit Niederschlagsmenge Niederschlagsart
Mo, 01.03. 7:00 0.1 l/m2 in 12 Std. Sprühregen
Mo, 01.03. 1:00 0.0 l/m2 in 6 Std. -
So, 28.02. 19:00 0.0 l/m2 in 12 Std. -
So, 28.02. 13:00 0.0 l/m2 in 6 Std. -
So, 28.02. 7:00 0.1 l/m2 in 12 Std. -
So, 28.02. 1:00 0.1 l/m2 in 6 Std. Sprühregen
Sa, 27.02. 19:00 0.1 l/m2 in 12 Std. Sprühregen
Sa, 27.02. 13:00 0.1 l/m2 in 6 Std. Sprühregen
Ortszeit Niederschlagsmenge Niederschlagsart
Mo, 01.03. 9:00 0.0 l/m2 in 1 Std. -
Mo, 01.03. 8:50 keine Meldung -
Mo, 01.03. 8:40 keine Meldung -
Mo, 01.03. 8:30 0.0 l/m2 in 1 Std. -
Mo, 01.03. 8:20 keine Meldung -
Mo, 01.03. 8:10 keine Meldung -
Mo, 01.03. 8:00 0.0 l/m2 in 1 Std. -
Mo, 01.03. 7:30 0.0 l/m2 in 1 Std. -
Mo, 01.03. 7:00 0.1 l/m2 in 1 Std. Sprühregen
Mo, 01.03. 6:30 0.0 l/m2 in 1 Std. -
Mo, 01.03. 6:00 0.0 l/m2 in 1 Std. -
Ortszeit Stärke Spitze Richtung
km/h Bft. km/h Grad Sektor
Mo, 01.03. 7:00 2 1 11 60° NO
Mo, 01.03. 1:00 0 0 11 - -
So, 28.02. 19:00 7 2 18 10° N
So, 28.02. 13:00 4 1 18 360° N
So, 28.02. 7:00 7 2 11 200° S
So, 28.02. 1:00 2 1 13 320° NW
Sa, 27.02. 19:00 6 1 19 290° W
Sa, 27.02. 13:00 11 2 24 310° NW
Ortszeit Stärke Spitze Richtung
km/h Bft. km/h Grad Sektor
Mo, 01.03. 9:00 4 1 11 80° O
Mo, 01.03. 8:50 4 1 - 80° O
Mo, 01.03. 8:40 4 1 - 160° S
Mo, 01.03. 8:30 4 1 11 110° O
Mo, 01.03. 8:20 4 1 - 110° O
Mo, 01.03. 8:10 4 1 - 120° SO
Mo, 01.03. 8:00 4 1 11 130° SO
Mo, 01.03. 7:30 6 1 9 120° SO
Mo, 01.03. 7:00 2 1 9 60° NO
Mo, 01.03. 6:30 4 1 7 340° N
Mo, 01.03. 6:00 7 2 11 360° N
Ortszeit Untergrenze Bedeckung Gattung
total tief tief mittel hoch
Mo, 01.03. 7:00 <30 m 8/8 0/8 - - -
Mo, 01.03. 1:00 <30 m 8/8 0/8 - - -
So, 28.02. 19:00 - 0/8 0/8 - - -
So, 28.02. 13:00 - 0/8 0/8 - - -
So, 28.02. 7:00 510 m 8/8 8/8 - - -
So, 28.02. 1:00 510 m 8/8 8/8 - - -
Sa, 27.02. 19:00 180 m 8/8 8/8 - - -
Sa, 27.02. 13:00 240 m 8/8 8/8 - - -
Ortszeit Bedeckungsgrad in Achtel und Wolkenuntergrenze
Mo, 01.03. 9:00 8(150m)
Mo, 01.03. 8:50 8(150m)
Mo, 01.03. 8:40 8(150m)
Mo, 01.03. 8:30 8(120m)
Mo, 01.03. 8:20 8(120m)
Mo, 01.03. 8:10 8(120m)
Mo, 01.03. 8:00 8(90m)
Mo, 01.03. 7:30 8(90m)
Mo, 01.03. 7:00 8(<30m)
Mo, 01.03. 6:30 8(<30m)
Mo, 01.03. 6:00 8(<30m)
Ortszeit Luftdruck NN (hPa) Tendenz (hPa in 3 Std.)
Mo, 01.03. 7:00 1036 + 0,3
Mo, 01.03. 1:00 1037 0,0
So, 28.02. 19:00 1036 + 0,1
So, 28.02. 13:00 1037 - 0,4
So, 28.02. 7:00 1039 - 0,1
So, 28.02. 1:00 1040 + 0,2
Sa, 27.02. 19:00 1040 + 0,6
Sa, 27.02. 13:00 1039 + 0,7
Ortszeit Luftdruck NN (hPa) Tendenz (hPa in 3 Std.)
Mo, 01.03. 9:00 1037 + 0,6
Mo, 01.03. 8:50 1037 keine Meldung
Mo, 01.03. 8:40 1037 keine Meldung
Mo, 01.03. 8:30 1036 + 0,3
Mo, 01.03. 8:20 1036 keine Meldung
Mo, 01.03. 8:10 1036 keine Meldung
Mo, 01.03. 8:00 1036 + 0,3
Mo, 01.03. 7:30 1036 + 0,4
Mo, 01.03. 7:00 1036 + 0,3
Mo, 01.03. 6:30 1036 + 0,2
Mo, 01.03. 6:00 1036 0,0
Ortszeit Schneehöhe (cm)
Mo, 01.03. 7:00 0
Mo, 01.03. 1:00 0
So, 28.02. 19:00 0
So, 28.02. 13:00 0
So, 28.02. 7:00 0
So, 28.02. 1:00 0
Sa, 27.02. 19:00 0
Sa, 27.02. 13:00 0
Ortszeit Schneehöhe (cm)
Mo, 01.03. 9:00 0
Mo, 01.03. 8:50 0
Mo, 01.03. 8:40 0
Mo, 01.03. 8:30 0
Mo, 01.03. 8:20 0
Mo, 01.03. 8:10 0
Mo, 01.03. 8:00 0
Mo, 01.03. 7:30 0
Mo, 01.03. 7:00 0
Mo, 01.03. 6:30 0
Mo, 01.03. 6:00 0
Link zu dieser Seite / Seite empfehlen

Das Wetter in ...